Time,TemperatureF,DewpointF,PressureIn,WindDirection,WindDirectionDegrees,WindSpeedMPH,WindSpeedGustMPH,Humidity,HourlyPrecipIn,Conditions,Clouds,dailyrainin,SoftwareType,DateUTC
2013-08-11 00:01:00,66.0,63.0,30.06,North,360,0.0,-999.0,89,-99.99,,,-99.99,,2013-08-11 04:01:00,
2013-08-11 00:12:00,65.0,62.0,30.06,North,360,0.0,-999.0,90,-99.99,,,-99.99,,2013-08-11 04:12:00,
2013-08-11 00:22:00,65.0,62.0,30.09,North,360,0.0,-999.0,91,-99.99,,,-99.99,,2013-08-11 04:22:00,
2013-08-11 00:32:00,65.0,62.0,30.09,North,360,0.0,-999.0,91,-99.99,,,-99.99,,2013-08-11 04:32:00,
2013-08-11 00:43:00,65.0,62.0,30.09,North,360,0.0,-999.0,91,-99.99,,,-99.99,,2013-08-11 04:43:00,
2013-08-11 00:53:00,65.0,63.0,30.08,North,360,0.0,-999.0,92,-99.99,,,-99.99,,2013-08-11 04:53:00,
2013-08-11 01:02:00,65.0,63.0,30.08,North,360,0.0,-999.0,92,-99.99,,,-99.99,,2013-08-11 05:02:00,
2013-08-11 01:19:00,65.0,63.0,30.08,North,360,0.0,-999.0,92,-99.99,,,-99.99,,2013-08-11 05:19:00,
2013-08-11 01:25:00,65.0,63.0,30.08,North,360,0.0,-999.0,92,-99.99,,,-99.99,,2013-08-11 05:25:00,
2013-08-11 01:36:00,65.0,63.0,30.08,North,360,0.0,-999.0,92,-99.99,,,-99.99,,2013-08-11 05:36:00,
2013-08-11 01:47:00,66.0,63.0,30.08,North,360,0.0,-999.0,90,-99.99,,,-99.99,,2013-08-11 05:47:00,
2013-08-11 01:54:00,66.0,63.0,30.09,North,360,0.0,-999.0,90,-99.99,,,-99.99,,2013-08-11 05:54:00,
2013-08-11 02:04:00,66.0,63.0,30.09,North,360,0.0,-999.0,90,-99.99,,,-99.99,,2013-08-11 06:04:00,
2013-08-11 02:17:00,66.0,63.0,30.08,North,360,0.0,-999.0,91,-99.99,,,-99.99,,2013-08-11 06:17:00,
2013-08-11 02:26:00,66.0,63.0,30.06,North,360,0.0,-999.0,91,-99.99,,,-99.99,,2013-08-11 06:26:00,
2013-08-11 02:48:00,65.0,63.0,30.06,North,360,1.0,-999.0,92,-99.99,,,-99.99,,2013-08-11 06:48:00,
2013-08-11 02:55:00,65.0,63.0,30.06,North,360,0.0,-999.0,92,-99.99,,,-99.99,,2013-08-11 06:55:00,
2013-08-11 03:06:00,65.0,63.0,30.06,North,360,0.0,-999.0,92,-99.99,,,-99.99,,2013-08-11 07:06:00,
2013-08-11 03:15:00,65.0,63.0,30.05,North,360,0.0,-999.0,92,-99.99,,,-99.99,,2013-08-11 07:15:00,
2013-08-11 03:24:00,65.0,63.0,30.04,North,360,0.0,-999.0,92,-99.99,,,-99.99,,2013-08-11 07:24:00,
2013-08-11 03:54:00,66.0,63.0,30.04,North,360,1.0,-999.0,90,-99.99,,,-99.99,,2013-08-11 07:54:00,
2013-08-11 04:18:00,65.0,62.0,30.04,North,360,1.0,-999.0,91,-99.99,,,-99.99,,2013-08-11 08:18:00,
2013-08-11 04:36:00,65.0,63.0,30.03,NE,38,0.0,-999.0,92,-99.99,,,-99.99,,2013-08-11 08:36:00,
2013-08-11 04:57:00,65.0,62.0,30.03,North,360,0.0,-999.0,91,-99.99,,,-99.99,,2013-08-11 08:57:00,
2013-08-11 05:08:00,65.0,62.0,30.03,North,360,0.0,-999.0,91,-99.99,,,-99.99,,2013-08-11 09:08:00,
2013-08-11 05:16:00,65.0,62.0,30.03,North,360,0.0,-999.0,91,-99.99,,,-99.99,,2013-08-11 09:16:00,
2013-08-11 05:35:00,65.0,63.0,30.05,North,360,1.0,-999.0,92,-99.99,,,-99.99,,2013-08-11 09:35:00,
2013-08-11 06:05:00,65.0,63.0,30.05,North,360,1.0,-999.0,92,-99.99,,,-99.99,,2013-08-11 10:05:00,
2013-08-11 06:15:00,65.0,63.0,30.06,North,360,1.0,-999.0,93,-99.99,,,-99.99,,2013-08-11 10:15:00,
2013-08-11 06:28:00,64.0,62.0,30.07,North,360,1.0,-999.0,93,-99.99,,,-99.99,,2013-08-11 10:28:00,
2013-08-11 06:35:00,64.0,62.0,30.07,North,360,1.0,-999.0,93,-99.99,,,-99.99,,2013-08-11 10:35:00,
2013-08-11 06:46:00,64.0,62.0,30.07,North,360,1.0,-999.0,94,-99.99,,,-99.99,,2013-08-11 10:46:00,
2013-08-11 06:55:00,64.0,62.0,30.07,North,360,1.0,-999.0,94,-99.99,,,-99.99,,2013-08-11 10:55:00,
2013-08-11 07:06:00,64.0,62.0,30.07,North,360,1.0,-999.0,94,-99.99,,,-99.99,,2013-08-11 11:06:00,
2013-08-11 07:15:00,64.0,62.0,30.08,North,360,0.0,-999.0,94,-99.99,,,-99.99,,2013-08-11 11:15:00,
2013-08-11 07:24:00,64.0,62.0,30.09,North,360,0.0,-999.0,94,-99.99,,,-99.99,,2013-08-11 11:24:00,
2013-08-11 07:47:00,64.0,62.0,30.08,North,360,0.0,-999.0,94,-99.99,,,-99.99,,2013-08-11 11:47:00,
2013-08-11 07:56:00,64.0,62.0,30.08,North,360,1.0,-999.0,94,-99.99,,,-99.99,,2013-08-11 11:56:00,
2013-08-11 08:06:00,64.0,62.0,30.08,North,360,1.0,-999.0,94,-99.99,,,-99.99,,2013-08-11 12:06:00,
2013-08-11 08:16:00,65.0,63.0,30.08,North,360,1.0,-999.0,94,-99.99,,,-99.99,,2013-08-11 12:16:00,
2013-08-11 08:29:00,64.0,62.0,30.09,North,360,1.0,-999.0,94,-99.99,,,-99.99,,2013-08-11 12:29:00,
2013-08-11 08:36:00,64.0,62.0,30.09,North,360,1.0,-999.0,94,-99.99,,,-99.99,,2013-08-11 12:36:00,
2013-08-11 08:45:00,65.0,63.0,30.09,North,360,1.0,-999.0,94,-99.99,,,-99.99,,2013-08-11 12:45:00,
2013-08-11 08:54:00,65.0,63.0,30.09,North,360,1.0,-999.0,94,-99.99,,,-99.99,,2013-08-11 12:54:00,
2013-08-11 09:06:00,65.0,63.0,30.09,North,360,1.0,-999.0,94,-99.99,,,-99.99,,2013-08-11 13:06:00,
2013-08-11 09:16:00,65.0,63.0,30.10,North,360,0.0,-999.0,94,-99.99,,,-99.99,,2013-08-11 13:16:00,
2013-08-11 09:25:00,65.0,64.0,30.10,North,360,1.0,-999.0,95,-99.99,,,-99.99,,2013-08-11 13:25:00,
2013-08-11 09:39:00,65.0,64.0,30.10,North,360,1.0,-999.0,95,-99.99,,,-99.99,,2013-08-11 13:39:00,
2013-08-11 09:45:00,67.0,65.0,30.10,North,360,2.0,-999.0,94,-99.99,,,-99.99,,2013-08-11 13:45:00,
2013-08-11 09:55:00,68.0,65.0,30.09,North,360,2.0,-999.0,91,-99.99,,,-99.99,,2013-08-11 13:55:00,
2013-08-11 10:05:00,68.0,65.0,30.09,North,360,2.0,-999.0,91,-99.99,,,-99.99,,2013-08-11 14:05:00,
2013-08-11 10:18:00,69.0,67.0,30.10,North,360,1.0,-999.0,92,-99.99,,,-99.99,,2013-08-11 14:18:00,
2013-08-11 10:24:00,69.0,66.0,30.09,North,360,1.0,-999.0,91,-99.99,,,-99.99,,2013-08-11 14:24:00,
2013-08-11 10:34:00,69.0,66.0,30.09,North,360,1.0,-999.0,91,-99.99,,,-99.99,,2013-08-11 14:34:00,
2013-08-11 10:48:00,70.0,67.0,30.09,North,360,1.0,-999.0,89,-99.99,,,-99.99,,2013-08-11 14:48:00,
2013-08-11 10:56:00,71.0,68.0,30.09,North,360,0.0,-999.0,89,-99.99,,,-99.99,,2013-08-11 14:56:00,
2013-08-11 11:08:00,71.0,68.0,30.09,North,360,0.0,-999.0,89,-99.99,,,-99.99,,2013-08-11 15:08:00,
2013-08-11 11:15:00,72.0,67.0,30.09,North,360,0.0,-999.0,84,-99.99,,,-99.99,,2013-08-11 15:15:00,
2013-08-11 11:24:00,72.0,67.0,30.08,North,360,0.0,-999.0,85,-99.99,,,-99.99,,2013-08-11 15:24:00,
2013-08-11 11:48:00,72.0,67.0,30.09,North,360,0.0,-999.0,83,-99.99,,,-99.99,,2013-08-11 15:48:00,
2013-08-11 11:57:00,73.0,68.0,30.08,North,360,1.0,-999.0,83,-99.99,,,-99.99,,2013-08-11 15:57:00,
2013-08-11 12:09:00,73.0,68.0,30.08,North,360,1.0,-999.0,83,-99.99,,,-99.99,,2013-08-11 16:09:00,
2013-08-11 12:28:00,75.0,69.0,30.06,North,360,0.0,-999.0,81,-99.99,,,-99.99,,2013-08-11 16:28:00,
2013-08-11 12:39:00,75.0,69.0,30.06,North,360,0.0,-999.0,81,-99.99,,,-99.99,,2013-08-11 16:39:00,
2013-08-11 12:46:00,75.0,69.0,30.06,North,360,0.0,-999.0,81,-99.99,,,-99.99,,2013-08-11 16:46:00,
2013-08-11 12:55:00,74.0,68.0,30.06,North,360,0.0,-999.0,82,-99.99,,,-99.99,,2013-08-11 16:55:00,
2013-08-11 13:08:00,74.0,68.0,30.06,North,360,0.0,-999.0,82,-99.99,,,-99.99,,2013-08-11 17:08:00,
2013-08-11 13:14:00,75.0,69.0,30.06,North,360,0.0,-999.0,82,-99.99,,,-99.99,,2013-08-11 17:14:00,
2013-08-11 13:25:00,75.0,69.0,30.05,North,360,0.0,-999.0,83,-99.99,,,-99.99,,2013-08-11 17:25:00,
2013-08-11 13:36:00,75.0,69.0,30.05,North,360,0.0,-999.0,83,-99.99,,,-99.99,,2013-08-11 17:36:00,
2013-08-11 13:45:00,73.0,69.0,30.05,North,360,0.0,-999.0,88,-99.99,,,-99.99,,2013-08-11 17:45:00,
2013-08-11 13:54:00,71.0,68.0,30.05,North,360,0.0,-999.0,90,-99.99,,,-99.99,,2013-08-11 17:54:00,
2013-08-11 14:06:00,71.0,68.0,30.05,North,360,0.0,-999.0,90,-99.99,,,-99.99,,2013-08-11 18:06:00,
2013-08-11 14:39:00,68.0,67.0,30.07,North,360,0.0,-999.0,97,-99.99,,,-99.99,,2013-08-11 18:39:00,
2013-08-11 14:47:00,71.0,68.0,30.05,North,360,0.0,-999.0,91,-99.99,,,-99.99,,2013-08-11 18:47:00,
2013-08-11 14:54:00,72.0,69.0,30.04,North,360,0.0,-999.0,89,-99.99,,,-99.99,,2013-08-11 18:54:00,
2013-08-11 15:09:00,72.0,69.0,30.04,North,360,0.0,-999.0,89,-99.99,,,-99.99,,2013-08-11 19:09:00,
2013-08-11 15:16:00,71.0,68.0,30.04,North,360,0.0,-999.0,91,-99.99,,,-99.99,,2013-08-11 19:16:00,
2013-08-11 15:25:00,71.0,69.0,30.05,North,360,0.0,-999.0,93,-99.99,,,-99.99,,2013-08-11 19:25:00,
2013-08-11 15:33:00,71.0,69.0,30.05,North,360,0.0,-999.0,93,-99.99,,,-99.99,,2013-08-11 19:33:00,
2013-08-11 15:50:00,67.0,65.0,30.07,North,360,1.0,-999.0,92,-99.99,,,-99.99,,2013-08-11 19:50:00,
2013-08-11 15:56:00,68.0,67.0,30.05,North,360,0.0,-999.0,97,-99.99,,,-99.99,,2013-08-11 19:56:00,
2013-08-11 16:07:00,68.0,67.0,30.05,North,360,0.0,-999.0,97,-99.99,,,-99.99,,2013-08-11 20:07:00,
2013-08-11 16:19:00,71.0,68.0,30.04,North,360,0.0,-999.0,89,-99.99,,,-99.99,,2013-08-11 20:19:00,
2013-08-11 16:28:00,73.0,68.0,30.02,North,360,0.0,-999.0,83,-99.99,,,-99.99,,2013-08-11 20:28:00,
2013-08-11 16:38:00,73.0,68.0,30.02,North,360,0.0,-999.0,83,-99.99,,,-99.99,,2013-08-11 20:38:00,
2013-08-11 16:48:00,74.0,70.0,30.01,North,360,0.0,-999.0,88,-99.99,,,-99.99,,2013-08-11 20:48:00,
2013-08-11 17:07:00,73.0,68.0,30.01,North,9,0.0,-999.0,85,-99.99,,,-99.99,,2013-08-11 21:07:00,
2013-08-11 17:13:00,72.0,69.0,30.01,North,5,0.0,-999.0,89,-99.99,,,-99.99,,2013-08-11 21:13:00,
2013-08-11 17:27:00,70.0,68.0,30.03,North,360,0.0,-999.0,93,-99.99,,,-99.99,,2013-08-11 21:27:00,
2013-08-11 17:34:00,70.0,68.0,30.03,North,360,0.0,-999.0,93,-99.99,,,-99.99,,2013-08-11 21:34:00,
2013-08-11 17:47:00,70.0,68.0,30.02,North,360,0.0,-999.0,93,-99.99,,,-99.99,,2013-08-11 21:47:00,
2013-08-11 17:54:00,70.0,67.0,30.03,North,360,0.0,-999.0,89,-99.99,,,-99.99,,2013-08-11 21:54:00,
2013-08-11 18:04:00,70.0,67.0,30.03,North,360,0.0,-999.0,89,-99.99,,,-99.99,,2013-08-11 22:04:00,
2013-08-11 18:16:00,71.0,68.0,30.03,North,360,0.0,-999.0,91,-99.99,,,-99.99,,2013-08-11 22:16:00,
2013-08-11 18:25:00,71.0,68.0,30.03,North,360,0.0,-999.0,90,-99.99,,,-99.99,,2013-08-11 22:25:00,
2013-08-11 18:36:00,71.0,68.0,30.03,North,360,0.0,-999.0,90,-99.99,,,-99.99,,2013-08-11 22:36:00,
2013-08-11 18:55:00,71.0,68.0,30.03,North,360,0.0,-999.0,90,-99.99,,,-99.99,,2013-08-11 22:55:00,
2013-08-11 19:05:00,71.0,68.0,30.03,North,360,0.0,-999.0,90,-99.99,,,-99.99,,2013-08-11 23:05:00,
2013-08-11 19:17:00,70.0,67.0,30.04,North,360,0.0,-999.0,91,-99.99,,,-99.99,,2013-08-11 23:17:00,
2013-08-11 19:28:00,70.0,68.0,30.03,North,360,0.0,-999.0,93,-99.99,,,-99.99,,2013-08-11 23:28:00,
2013-08-11 19:35:00,70.0,68.0,30.03,North,360,0.0,-999.0,93,-99.99,,,-99.99,,2013-08-11 23:35:00,
2013-08-11 19:48:00,71.0,68.0,30.04,North,360,0.0,-999.0,90,-99.99,,,-99.99,,2013-08-11 23:48:00,
2013-08-11 19:56:00,70.0,68.0,30.04,North,360,0.0,-999.0,93,-99.99,,,-99.99,,2013-08-11 23:56:00,
2013-08-11 20:06:00,70.0,68.0,30.04,North,360,0.0,-999.0,93,-99.99,,,-99.99,,2013-08-12 00:06:00,
2013-08-11 20:25:00,69.0,68.0,30.06,North,360,0.0,-999.0,96,-99.99,,,-99.99,,2013-08-12 00:25:00,
2013-08-11 20:37:00,69.0,68.0,30.06,North,360,0.0,-999.0,96,-99.99,,,-99.99,,2013-08-12 00:37:00,
2013-08-11 20:49:00,68.0,67.0,30.05,North,360,0.0,-999.0,96,-99.99,,,-99.99,,2013-08-12 00:49:00,
2013-08-11 20:54:00,67.0,66.0,30.05,North,360,1.0,-999.0,96,-99.99,,,-99.99,,2013-08-12 00:54:00,
2013-08-11 21:07:00,67.0,66.0,30.05,North,360,1.0,-999.0,96,-99.99,,,-99.99,,2013-08-12 01:07:00,
2013-08-11 21:14:00,67.0,66.0,30.05,NE,37,0.0,-999.0,96,-99.99,,,-99.99,,2013-08-12 01:14:00,
2013-08-11 21:25:00,67.0,66.0,30.04,North,360,0.0,-999.0,96,-99.99,,,-99.99,,2013-08-12 01:25:00,
2013-08-11 21:37:00,67.0,66.0,30.04,North,360,0.0,-999.0,96,-99.99,,,-99.99,,2013-08-12 01:37:00,
2013-08-11 21:46:00,66.0,65.0,30.04,NNE,14,0.0,-999.0,96,-99.99,,,-99.99,,2013-08-12 01:46:00,
2013-08-11 21:55:00,66.0,65.0,30.04,North,360,0.0,-999.0,95,-99.99,,,-99.99,,2013-08-12 01:55:00,
2013-08-11 22:08:00,66.0,65.0,30.04,North,360,0.0,-999.0,95,-99.99,,,-99.99,,2013-08-12 02:08:00,
2013-08-11 22:15:00,66.0,65.0,30.05,North,360,1.0,-999.0,97,-99.99,,,-99.99,,2013-08-12 02:15:00,
2013-08-11 22:24:00,66.0,65.0,30.04,North,360,0.0,-999.0,97,-99.99,,,-99.99,,2013-08-12 02:24:00,
2013-08-11 22:36:00,66.0,65.0,30.04,North,360,0.0,-999.0,97,-99.99,,,-99.99,,2013-08-12 02:36:00,
2013-08-11 22:55:00,66.0,65.0,30.05,North,360,0.0,-999.0,97,-99.99,,,-99.99,,2013-08-12 02:55:00,
2013-08-11 23:07:00,66.0,65.0,30.05,North,360,0.0,-999.0,97,-99.99,,,-99.99,,2013-08-12 03:07:00,
2013-08-11 23:15:00,65.0,64.0,30.05,North,360,0.0,-999.0,97,-99.99,,,-99.99,,2013-08-12 03:15:00,
2013-08-11 23:39:00,65.0,64.0,30.05,North,360,1.0,-999.0,98,-99.99,,,-99.99,,2013-08-12 03:39:00,
2013-08-11 23:56:00,65.0,64.0,30.04,North,360,0.0,-999.0,97,-99.99,,,-99.99,,2013-08-12 03:56:00,